Time;durP1;ratioP1;P1;durP2;ratioP2;P2;SDS_P1;SDS_P2;PMS_P1;PMS_P2;Temp;Humidity;BMP_temperature;BMP_pressure;BME280_temperature;BME280_humidity;BME280_pressure;Samples;Min_cycle;Max_cycle;Signal;HPM_P1;HPM_P2
2021/05/16 00:01:10;;;;;;;1.60;1.50;;;9.10;99.90;;;;;;5013875;28;20180;-78
2021/05/16 00:03:37;;;;;;;1.73;1.63;;;9.00;99.90;;;;;;5014052;28;20192;-78
2021/05/16 00:06:03;;;;;;;1.63;1.53;;;9.00;99.90;;;;;;5009525;28;20210;-79
2021/05/16 00:08:29;;;;;;;1.23;1.13;;;9.00;99.90;;;;;;5010653;28;20180;-77
2021/05/16 00:10:56;;;;;;;1.20;1.10;;;9.00;99.90;;;;;;5013939;28;20701;-78
2021/05/16 00:13:21;;;;;;;2.50;1.20;;;9.00;99.90;;;;;;5011575;28;20192;-78
2021/05/16 00:15:47;;;;;;;1.13;0.97;;;9.00;99.90;;;;;;5011156;28;20242;-77
2021/05/16 00:18:13;;;;;;;1.00;0.90;;;8.90;99.90;;;;;;5011204;28;20217;-77
2021/05/16 00:20:38;;;;;;;1.00;0.90;;;8.90;99.90;;;;;;5013180;28;20198;-78
2021/05/16 00:23:04;;;;;;;1.60;1.27;;;8.90;99.90;;;;;;5013512;28;20223;-78
2021/05/16 00:25:31;;;;;;;1.03;0.93;;;8.90;99.90;;;;;;5013165;28;20198;-78
2021/05/16 00:27:57;;;;;;;1.10;1.00;;;8.90;99.90;;;;;;5011658;28;20203;-79
2021/05/16 00:30:25;;;;;;;0.70;0.70;;;9.00;99.90;;;;;;5010070;28;20557;-78
2021/05/16 00:32:52;;;;;;;0.87;0.87;;;9.00;99.90;;;;;;5009460;28;20183;-78
2021/05/16 00:35:20;;;;;;;1.10;0.90;;;9.10;99.90;;;;;;5010860;28;20728;-78
2021/05/16 00:37:46;;;;;;;1.00;0.80;;;9.00;99.90;;;;;;5012024;28;20213;-77
2021/05/16 00:40:13;;;;;;;0.70;0.70;;;9.00;99.90;;;;;;5013159;28;20195;-78
2021/05/16 00:42:38;;;;;;;0.80;0.80;;;9.00;99.90;;;;;;5012477;28;20203;-77
2021/05/16 00:45:13;;;;;;;1.07;1.03;;;8.90;99.90;;;;;;5012283;28;20708;-78
2021/05/16 00:47:45;;;;;;;1.20;1.00;;;8.90;99.90;;;;;;5013505;28;20218;-77
2021/05/16 00:50:11;;;;;;;1.03;0.93;;;8.80;99.90;;;;;;5011781;28;20179;-78
2021/05/16 00:52:40;;;;;;;1.27;0.90;;;8.80;99.90;;;;;;5012713;28;20192;-77
2021/05/16 00:55:07;;;;;;;1.17;1.00;;;8.70;99.90;;;;;;5012120;28;20755;-78
2021/05/16 00:57:33;;;;;;;1.10;0.80;;;8.80;99.90;;;;;;5013356;28;20210;-78
2021/05/16 00:59:58;;;;;;;0.80;0.80;;;8.80;99.90;;;;;;5012183;28;20651;-77
2021/05/16 01:02:24;;;;;;;1.10;1.03;;;8.80;99.90;;;;;;5011465;28;20571;-78
2021/05/16 01:04:51;;;;;;;1.07;1.00;;;8.80;99.90;;;;;;5012653;28;20194;-78
2021/05/16 01:07:17;;;;;;;1.40;1.20;;;8.70;99.90;;;;;;5013017;28;20310;-77
2021/05/16 01:09:43;;;;;;;1.10;1.00;;;8.80;99.90;;;;;;5012339;28;20179;-78
2021/05/16 01:12:09;;;;;;;1.53;1.43;;;8.90;99.90;;;;;;5013291;28;20198;-77
2021/05/16 01:14:39;;;;;;;1.40;1.30;;;8.90;99.90;;;;;;5012497;28;20202;-77
2021/05/16 01:17:05;;;;;;;1.13;1.07;;;8.90;99.90;;;;;;5012765;28;20196;-78
2021/05/16 01:19:32;;;;;;;1.17;1.07;;;9.00;99.90;;;;;;5012999;28;20194;-77
2021/05/16 01:21:59;;;;;;;1.57;1.30;;;9.10;99.90;;;;;;5012608;28;20296;-77
2021/05/16 01:24:26;;;;;;;1.00;0.93;;;9.10;99.90;;;;;;5011907;28;20238;-78
2021/05/16 01:26:52;;;;;;;2.13;1.23;;;9.10;99.90;;;;;;5012677;28;20619;-78
2021/05/16 01:29:19;;;;;;;0.80;0.80;;;9.10;99.90;;;;;;5013085;28;20180;-77
2021/05/16 01:31:45;;;;;;;1.70;1.20;;;9.10;99.90;;;;;;5012790;28;20189;-78
2021/05/16 01:34:10;;;;;;;1.30;1.20;;;9.10;99.90;;;;;;5010870;28;20188;-77
2021/05/16 01:36:37;;;;;;;0.93;0.90;;;9.30;99.90;;;;;;5012256;28;20202;-77
2021/05/16 01:39:07;;;;;;;1.30;1.20;;;9.30;99.90;;;;;;5012108;28;20188;-77
2021/05/16 01:41:33;;;;;;;2.33;1.20;;;9.30;99.90;;;;;;5010589;28;20179;-77
2021/05/16 01:43:59;;;;;;;1.37;1.20;;;9.30;99.90;;;;;;5012254;28;20195;-78
2021/05/16 01:46:25;;;;;;;1.33;1.23;;;9.40;99.90;;;;;;5010291;28;20199;-77
2021/05/16 01:48:52;;;;;;;1.60;1.30;;;9.30;99.90;;;;;;5004091;28;20214;-79
2021/05/16 01:51:19;;;;;;;2.10;1.40;;;9.30;99.90;;;;;;5022813;28;20183;-78
2021/05/16 01:53:45;;;;;;;1.60;1.17;;;9.40;99.90;;;;;;5009516;28;20338;-77
2021/05/16 01:56:23;;;;;;;1.70;1.20;;;9.40;99.90;;;;;;5011647;28;20190;-78
2021/05/16 01:58:49;;;;;;;1.50;1.40;;;9.50;99.90;;;;;;5012009;28;20271;-77
2021/05/16 02:01:16;;;;;;;1.30;1.20;;;9.50;99.90;;;;;;5010286;28;20187;-78
2021/05/16 02:03:42;;;;;;;1.43;1.23;;;9.60;99.90;;;;;;5011286;28;20226;-79
2021/05/16 02:06:08;;;;;;;2.17;1.43;;;9.60;99.90;;;;;;5008918;28;20176;-78
2021/05/16 02:08:35;;;;;;;1.23;1.13;;;9.60;99.90;;;;;;5010914;28;20603;-78
2021/05/16 02:11:03;;;;;;;2.43;1.10;;;9.70;99.90;;;;;;5011232;28;20258;-78
2021/05/16 02:13:29;;;;;;;2.33;1.40;;;9.70;99.90;;;;;;5010111;28;20725;-78
2021/05/16 02:15:55;;;;;;;2.03;1.50;;;9.70;99.90;;;;;;5010297;28;20192;-77
2021/05/16 02:18:20;;;;;;;1.60;1.40;;;9.80;99.90;;;;;;5008758;28;20290;-79
2021/05/16 02:20:47;;;;;;;1.73;1.40;;;9.80;99.90;;;;;;5011418;28;20247;-77
2021/05/16 02:23:12;;;;;;;1.53;1.20;;;9.90;99.90;;;;;;5009841;28;20601;-77
2021/05/16 02:25:38;;;;;;;1.90;1.47;;;9.90;99.90;;;;;;5009444;28;20180;-78
2021/05/16 02:28:06;;;;;;;1.03;0.93;;;9.90;99.90;;;;;;5010098;28;20257;-78
2021/05/16 02:30:32;;;;;;;0.87;0.87;;;9.90;99.90;;;;;;5009787;28;20252;-78
2021/05/16 02:32:57;;;;;;;5.10;1.47;;;9.90;99.90;;;;;;5011505;28;20211;-78
2021/05/16 02:35:23;;;;;;;1.37;0.83;;;10.00;99.90;;;;;;5010555;28;20543;-77
2021/05/16 02:37:49;;;;;;;1.33;1.00;;;10.00;99.90;;;;;;5010787;28;20215;-79
2021/05/16 02:40:15;;;;;;;0.63;0.63;;;10.00;99.90;;;;;;5010653;28;20191;-78
2021/05/16 02:42:40;;;;;;;1.23;1.00;;;10.00;99.90;;;;;;5009637;28;20199;-77
2021/05/16 02:45:07;;;;;;;1.00;0.90;;;10.00;99.90;;;;;;5025145;28;20211;-78
2021/05/16 02:47:33;;;;;;;2.13;0.97;;;10.00;99.90;;;;;;5010460;28;20199;-78
2021/05/16 02:49:58;;;;;;;1.07;0.97;;;10.10;99.90;;;;;;5008399;28;20542;-78
2021/05/16 02:52:24;;;;;;;0.80;0.70;;;10.10;99.90;;;;;;5005969;28;20545;-77
2021/05/16 02:54:49;;;;;;;2.80;1.10;;;10.20;99.90;;;;;;5003793;28;20297;-76
2021/05/16 02:57:15;;;;;;;1.23;1.13;;;10.20;99.90;;;;;;5007278;28;20208;-79
2021/05/16 02:59:41;;;;;;;1.10;1.00;;;10.20;99.90;;;;;;5014326;28;20674;-78
2021/05/16 03:02:06;;;;;;;0.90;0.90;;;10.20;99.90;;;;;;5015967;28;20540;-78
2021/05/16 03:04:32;;;;;;;0.73;0.73;;;10.20;99.90;;;;;;5013743;28;20183;-77
2021/05/16 03:06:57;;;;;;;2.60;1.23;;;10.10;99.90;;;;;;5014636;28;20219;-78
2021/05/16 03:09:24;;;;;;;1.87;1.30;;;10.10;99.90;;;;;;5015917;28;20190;-78
2021/05/16 03:11:49;;;;;;;0.87;0.83;;;10.20;99.90;;;;;;5014651;28;20191;-78
2021/05/16 03:14:15;;;;;;;0.70;0.70;;;10.20;99.90;;;;;;5013844;28;20610;-78
2021/05/16 03:16:41;;;;;;;0.90;0.90;;;10.20;99.90;;;;;;5016314;28;20203;-79
2021/05/16 03:19:06;;;;;;;1.83;0.90;;;10.10;99.90;;;;;;5015639;28;20214;-78
2021/05/16 03:21:32;;;;;;;1.40;1.23;;;10.10;99.90;;;;;;5012983;28;20685;-78
2021/05/16 03:23:58;;;;;;;0.93;0.90;;;10.00;99.90;;;;;;5015145;28;20198;-78
2021/05/16 03:26:24;;;;;;;1.83;1.33;;;10.00;99.90;;;;;;5015473;28;20305;-78
2021/05/16 03:28:50;;;;;;;1.00;0.77;;;10.00;99.90;;;;;;5014959;28;20179;-78
2021/05/16 03:31:15;;;;;;;1.20;1.10;;;10.00;99.90;;;;;;5014786;28;20180;-78
2021/05/16 03:33:41;;;;;;;1.20;1.10;;;9.90;99.90;;;;;;5013606;28;20283;-78
2021/05/16 03:36:07;;;;;;;1.10;1.10;;;9.90;99.90;;;;;;5013327;28;20654;-78
2021/05/16 03:38:32;;;;;;;0.70;0.70;;;10.00;99.90;;;;;;5012725;28;20207;-77
2021/05/16 03:40:58;;;;;;;1.20;1.10;;;10.00;99.90;;;;;;5008035;28;20701;-77
2021/05/16 03:43:24;;;;;;;1.00;0.90;;;9.90;99.90;;;;;;5007153;28;20482;-77
2021/05/16 03:45:50;;;;;;;0.90;0.90;;;9.90;99.90;;;;;;5009205;28;20199;-79
2021/05/16 03:48:16;;;;;;;1.37;1.27;;;9.80;99.90;;;;;;5011994;28;20561;-77
2021/05/16 03:50:41;;;;;;;0.97;0.90;;;9.80;99.90;;;;;;5010074;28;20179;-78
2021/05/16 03:53:07;;;;;;;1.07;0.87;;;9.80;99.90;;;;;;5010922;28;20198;-77
2021/05/16 03:55:33;;;;;;;1.23;1.10;;;9.90;99.90;;;;;;5010694;28;20596;-78
2021/05/16 03:58:00;;;;;;;1.10;0.83;;;9.90;99.90;;;;;;5011348;28;20208;-79
2021/05/16 04:00:25;;;;;;;1.07;0.90;;;9.90;99.90;;;;;;5009913;28;20442;-79
2021/05/16 04:02:51;;;;;;;1.30;1.13;;;10.00;99.90;;;;;;5010259;28;20209;-79
2021/05/16 04:05:17;;;;;;;0.60;0.60;;;10.20;99.90;;;;;;5013627;28;20263;-78
2021/05/16 04:07:43;;;;;;;0.83;0.63;;;10.30;99.90;;;;;;5014090;28;20899;-78
2021/05/16 04:10:10;;;;;;;1.00;0.90;;;10.50;99.90;;;;;;5012739;28;20183;-77
2021/05/16 04:12:35;;;;;;;1.10;1.00;;;10.70;99.90;;;;;;5011799;28;20567;-79
2021/05/16 04:15:02;;;;;;;1.17;0.80;;;10.80;99.90;;;;;;5011926;28;20191;-79
2021/05/16 04:17:28;;;;;;;2.20;1.33;;;10.90;99.90;;;;;;5012986;28;20207;-78
2021/05/16 04:19:53;;;;;;;0.50;0.50;;;11.00;99.90;;;;;;5014195;28;20275;-78
2021/05/16 04:22:19;;;;;;;0.63;0.63;;;11.00;99.90;;;;;;5012765;28;20298;-78
2021/05/16 04:24:45;;;;;;;0.90;0.90;;;11.00;99.90;;;;;;5009724;28;20208;-79
2021/05/16 04:27:10;;;;;;;0.70;0.70;;;11.00;99.90;;;;;;5012001;28;20204;-78
2021/05/16 04:29:36;;;;;;;1.60;1.00;;;11.00;99.90;;;;;;5013372;28;20179;-77
2021/05/16 04:32:02;;;;;;;1.23;0.87;;;10.90;99.90;;;;;;5013847;28;20195;-78
2021/05/16 04:34:27;;;;;;;0.73;0.63;;;10.80;99.90;;;;;;5012632;28;20226;-78
2021/05/16 04:36:53;;;;;;;1.60;0.70;;;10.70;99.90;;;;;;5013277;28;20236;-76
2021/05/16 04:39:18;;;;;;;0.87;0.63;;;10.60;99.90;;;;;;5013594;28;20748;-78
2021/05/16 04:41:44;;;;;;;0.63;0.63;;;10.50;99.90;;;;;;5013513;28;20244;-78
2021/05/16 04:44:10;;;;;;;0.80;0.77;;;10.50;99.90;;;;;;5013916;28;20187;-79
2021/05/16 04:46:36;;;;;;;2.00;0.80;;;10.50;99.90;;;;;;5012749;28;20199;-78
2021/05/16 04:49:01;;;;;;;2.03;1.00;;;10.50;99.90;;;;;;5012517;28;20230;-78
2021/05/16 04:51:27;;;;;;;1.33;0.80;;;10.60;99.90;;;;;;5013384;28;20187;-78
2021/05/16 04:53:53;;;;;;;2.53;0.93;;;10.60;99.90;;;;;;5012682;28;20192;-77
2021/05/16 04:56:19;;;;;;;0.60;0.60;;;10.70;99.90;;;;;;5011721;28;20207;-78
2021/05/16 04:58:45;;;;;;;1.30;0.90;;;10.60;99.90;;;;;;5009945;28;20191;-79
2021/05/16 05:01:11;;;;;;;0.80;0.80;;;10.60;99.90;;;;;;5012287;28;20194;-78
2021/05/16 05:03:37;;;;;;;1.07;0.90;;;10.60;99.90;;;;;;5011809;28;20283;-78
2021/05/16 05:06:03;;;;;;;0.80;0.80;;;10.70;99.90;;;;;;5012833;28;20265;-77
2021/05/16 05:08:30;;;;;;;0.70;0.70;;;10.70;99.90;;;;;;5012393;28;20245;-79
2021/05/16 05:10:56;;;;;;;1.00;0.90;;;10.70;99.90;;;;;;5010491;28;20229;-78
2021/05/16 05:13:22;;;;;;;1.10;1.00;;;10.70;99.90;;;;;;5010509;28;21282;-79
2021/05/16 05:15:48;;;;;;;2.10;0.67;;;10.80;99.90;;;;;;5007372;28;20219;-77
2021/05/16 05:18:18;;;;;;;1.10;1.00;;;10.80;99.90;;;;;;5010278;28;20302;-77
2021/05/16 05:20:44;;;;;;;1.03;0.70;;;10.90;99.90;;;;;;5010229;28;20278;-78
2021/05/16 05:23:10;;;;;;;0.60;0.60;;;11.00;99.90;;;;;;5007357;28;20287;-77
2021/05/16 05:25:36;;;;;;;1.30;0.50;;;11.00;99.90;;;;;;5010787;28;20259;-78
2021/05/16 05:28:02;;;;;;;1.27;0.77;;;11.00;99.90;;;;;;5010720;28;20291;-79
2021/05/16 05:30:27;;;;;;;1.57;0.80;;;11.00;99.90;;;;;;5015229;28;20187;-79
2021/05/16 05:32:53;;;;;;;6.47;1.17;;;11.10;99.90;;;;;;5011329;28;20656;-78
2021/05/16 05:35:19;;;;;;;0.70;0.70;;;11.20;99.90;;;;;;5010336;28;20196;-78
2021/05/16 05:37:45;;;;;;;1.23;0.73;;;11.20;99.90;;;;;;5008137;28;20263;-78
2021/05/16 05:40:12;;;;;;;0.70;0.70;;;11.40;99.90;;;;;;5009425;28;20252;-78
2021/05/16 05:42:38;;;;;;;0.50;0.50;;;11.80;99.90;;;;;;5011466;28;20620;-77
2021/05/16 05:45:09;;;;;;;9.75;0.82;;;12.80;99.90;;;;;;5012758;28;20191;-79
2021/05/16 05:47:35;;;;;;;1.23;0.80;;;14.30;99.90;;;;;;5011848;28;20196;-79
2021/05/16 05:50:01;;;;;;;0.95;0.52;;;15.40;99.90;;;;;;5014511;28;20183;-79
2021/05/16 05:52:27;;;;;;;1.08;0.70;;;15.80;99.90;;;;;;5012789;28;20235;-77
2021/05/16 05:54:52;;;;;;;0.98;0.85;;;15.60;99.90;;;;;;5011734;28;20194;-78
2021/05/16 05:57:18;;;;;;;1.17;0.75;;;15.40;99.90;;;;;;5012776;28;20214;-78
2021/05/16 05:59:43;;;;;;;1.73;0.70;;;16.10;99.90;;;;;;5010901;28;20732;-78
2021/05/16 06:02:09;;;;;;;0.65;0.65;;;16.70;99.90;;;;;;5007929;28;20775;-77
2021/05/16 06:04:35;;;;;;;0.50;0.47;;;17.30;99.90;;;;;;5005173;28;20555;-78
2021/05/16 06:07:01;;;;;;;1.05;0.43;;;18.20;99.90;;;;;;5011138;28;20223;-78
2021/05/16 06:09:27;;;;;;;0.85;0.60;;;18.80;99.90;;;;;;5013936;28;20263;-78
2021/05/16 06:11:53;;;;;;;1.73;0.63;;;18.50;99.90;;;;;;5014158;28;20206;-78
2021/05/16 06:14:19;;;;;;;0.77;0.70;;;18.00;99.90;;;;;;5014093;28;20203;-78
2021/05/16 06:16:44;;;;;;;1.10;0.57;;;17.80;99.90;;;;;;5014249;28;20202;-78
2021/05/16 06:19:10;;;;;;;1.42;0.77;;;18.20;99.90;;;;;;5014075;28;20176;-77
2021/05/16 06:21:36;;;;;;;1.15;0.80;;;18.20;99.90;;;;;;5009609;28;20176;-79
2021/05/16 06:24:11;;;;;;;1.45;0.80;;;17.90;99.90;;;;;;5013228;28;21020;-78
2021/05/16 06:26:45;;;;;;;1.50;0.60;;;18.30;99.90;;;;;;5013441;28;20203;-78
2021/05/16 06:29:12;;;;;;;2.67;0.95;;;18.50;99.90;;;;;;5013327;28;20172;-78
2021/05/16 06:31:38;;;;;;;1.80;0.85;;;18.00;99.90;;;;;;5013790;28;20186;-78
2021/05/16 06:34:04;;;;;;;2.10;0.60;;;17.70;99.90;;;;;;5014457;28;20180;-76
2021/05/16 06:36:31;;;;;;;0.80;0.73;;;17.40;99.90;;;;;;5017668;28;20294;-78
2021/05/16 06:38:57;;;;;;;1.75;0.50;;;17.10;99.90;;;;;;5018591;28;20175;-78
2021/05/16 06:41:23;;;;;;;1.05;0.73;;;16.30;99.90;;;;;;5018035;28;20559;-77
2021/05/16 06:43:49;;;;;;;4.97;1.30;;;15.60;99.90;;;;;;5017655;28;20210;-77
2021/05/16 06:46:15;;;;;;;0.40;0.40;;;15.20;99.90;;;;;;5015502;28;20659;-77
2021/05/16 06:48:41;;;;;;;1.85;1.10;;;14.90;99.90;;;;;;5013438;28;20194;-78
2021/05/16 06:51:07;;;;;;;2.05;0.73;;;15.10;99.90;;;;;;5015058;28;20191;-78
2021/05/16 06:53:33;;;;;;;1.13;0.85;;;15.60;99.90;;;;;;5015758;28;20191;-77
2021/05/16 06:55:59;;;;;;;1.23;0.68;;;15.90;99.90;;;;;;5014715;28;20195;-78
2021/05/16 06:58:25;;;;;;;0.73;0.73;;;16.00;99.90;;;;;;5015027;28;20466;-77
2021/05/16 07:00:51;;;;;;;0.95;0.70;;;16.10;99.90;;;;;;5012893;28;20248;-76
2021/05/16 07:03:16;;;;;;;2.58;0.70;;;16.20;99.90;;;;;;5010308;28;20584;-77
2021/05/16 07:05:42;;;;;;;0.77;0.60;;;16.10;99.90;;;;;;5011126;28;20180;-77
2021/05/16 07:08:08;;;;;;;1.40;0.60;;;16.20;99.90;;;;;;5015366;28;20211;-77
2021/05/16 07:10:34;;;;;;;1.65;1.05;;;16.20;99.90;;;;;;5014798;28;20727;-78
2021/05/16 07:12:59;;;;;;;1.75;0.73;;;16.00;99.90;;;;;;5012455;28;20257;-77
2021/05/16 07:15:26;;;;;;;2.38;0.65;;;16.20;99.90;;;;;;5012906;28;20417;-77
2021/05/16 07:17:51;;;;;;;1.13;0.60;;;16.40;99.90;;;;;;5015787;28;20371;-78
2021/05/16 07:20:17;;;;;;;3.33;1.17;;;15.80;99.90;;;;;;5010793;28;20396;-79
2021/05/16 07:22:43;;;;;;;1.30;0.60;;;15.60;99.90;;;;;;5012065;28;20213;-77
2021/05/16 07:25:09;;;;;;;0.65;0.65;;;15.50;99.90;;;;;;5010583;28;20215;-77
2021/05/16 07:27:35;;;;;;;0.52;0.50;;;15.60;99.90;;;;;;5007243;28;20661;-77
2021/05/16 07:30:00;;;;;;;1.55;0.55;;;15.80;99.90;;;;;;5012216;28;20194;-77
2021/05/16 07:32:26;;;;;;;1.10;0.65;;;15.90;99.90;;;;;;5005697;28;20183;-77
2021/05/16 07:34:51;;;;;;;4.13;1.20;;;15.80;99.90;;;;;;5007184;28;20649;-77
2021/05/16 07:37:17;;;;;;;0.77;0.40;;;15.80;99.90;;;;;;5007992;28;20221;-77
2021/05/16 07:39:43;;;;;;;1.45;0.63;;;15.80;99.90;;;;;;5008328;28;20214;-77
2021/05/16 07:42:09;;;;;;;4.38;1.25;;;15.40;99.90;;;;;;5010421;28;20293;-78
2021/05/16 07:44:35;;;;;;;0.40;0.40;;;15.30;99.90;;;;;;5009288;28;20219;-77
2021/05/16 07:47:00;;;;;;;2.42;0.60;;;15.50;99.90;;;;;;5008578;28;20291;-77
2021/05/16 07:49:26;;;;;;;0.60;0.50;;;15.50;99.90;;;;;;5007127;28;20282;-77
2021/05/16 07:51:51;;;;;;;1.60;0.40;;;15.40;99.90;;;;;;5011064;28;20201;-77
2021/05/16 07:54:17;;;;;;;0.70;0.60;;;15.10;99.90;;;;;;5011660;28;20187;-77
2021/05/16 07:56:44;;;;;;;2.10;0.60;;;15.00;99.90;;;;;;5008334;28;20735;-77
2021/05/16 07:59:10;;;;;;;0.55;0.55;;;15.10;99.90;;;;;;5009381;28;20214;-77
2021/05/16 08:01:35;;;;;;;2.93;0.87;;;15.10;99.90;;;;;;5009442;28;20223;-77
2021/05/16 08:04:01;;;;;;;1.95;0.43;;;15.20;99.90;;;;;;5008335;28;20409;-77
2021/05/16 08:06:26;;;;;;;2.42;0.98;;;15.20;99.90;;;;;;5006756;28;20727;-77
2021/05/16 08:08:52;;;;;;;0.88;0.50;;;15.50;99.90;;;;;;5009770;28;20350;-77
2021/05/16 08:11:17;;;;;;;4.55;1.30;;;15.60;99.90;;;;;;5010095;28;20199;-77
2021/05/16 08:13:43;;;;;;;2.17;1.02;;;16.10;99.90;;;;;;5014821;28;20409;-77
2021/05/16 08:16:09;;;;;;;0.55;0.50;;;16.20;99.90;;;;;;5019090;28;20211;-79
2021/05/16 08:18:35;;;;;;;1.27;0.60;;;16.40;99.90;;;;;;5021247;28;20258;-79
2021/05/16 08:21:01;;;;;;;1.00;0.50;;;16.80;99.90;;;;;;5020273;28;20665;-79
2021/05/16 08:23:26;;;;;;;3.67;0.70;;;16.90;99.90;;;;;;5018666;28;20233;-78
2021/05/16 08:25:52;;;;;;;2.13;0.80;;;16.70;99.90;;;;;;5020848;28;20207;-78
2021/05/16 08:28:18;;;;;;;0.88;0.50;;;16.20;99.90;;;;;;5020162;28;20204;-79
2021/05/16 08:30:44;;;;;;;1.67;0.55;;;16.40;99.90;;;;;;5018120;28;20273;-79
2021/05/16 08:33:10;;;;;;;0.80;0.50;;;16.50;99.90;;;;;;5018156;28;20254;-78
2021/05/16 08:35:35;;;;;;;1.27;0.68;;;16.80;99.90;;;;;;5017298;28;20183;-80
2021/05/16 08:38:02;;;;;;;0.57;0.57;;;17.00;99.90;;;;;;5019798;28;20207;-77
2021/05/16 08:40:27;;;;;;;0.68;0.40;;;17.00;99.90;;;;;;5011391;28;20184;-78
2021/05/16 08:42:53;;;;;;;0.98;0.60;;;16.90;99.90;;;;;;5006504;28;20195;-77
2021/05/16 08:45:19;;;;;;;1.38;0.57;;;16.50;99.90;;;;;;5007859;28;20562;-77
2021/05/16 08:47:45;;;;;;;6.20;2.90;;;16.60;99.90;;;;;;5008713;28;20200;-76
2021/05/16 08:50:16;;;;;;;2.58;1.20;;;16.80;99.90;;;;;;5007335;28;20179;-77
2021/05/16 08:52:42;;;;;;;1.80;0.98;;;16.90;99.90;;;;;;5006631;28;20184;-76
2021/05/16 08:55:09;;;;;;;2.33;0.77;;;16.50;99.90;;;;;;5005787;28;20176;-77
2021/05/16 08:57:35;;;;;;;1.83;0.90;;;16.70;99.90;;;;;;5005909;28;20261;-77
2021/05/16 09:00:08;;;;;;;2.85;0.93;;;16.90;99.90;;;;;;5003995;28;20615;-76
2021/05/16 09:02:34;;;;;;;2.33;1.05;;;16.80;99.90;;;;;;5002028;28;20431;-75
2021/05/16 09:05:00;;;;;;;1.10;0.68;;;17.00;99.90;;;;;;5010324;28;20268;-77
2021/05/16 09:07:30;;;;;;;1.63;0.60;;;16.70;99.90;;;;;;5009808;28;20970;-77
2021/05/16 09:09:56;;;;;;;1.70;0.57;;;16.60;99.90;;;;;;5010288;28;20545;-77
2021/05/16 09:12:22;;;;;;;3.03;0.68;;;16.50;99.90;;;;;;5010427;28;20190;-77
2021/05/16 09:14:49;;;;;;;2.72;1.25;;;16.30;99.90;;;;;;5008318;28;20186;-77
2021/05/16 09:17:34;;;;;;;3.05;1.00;;;16.40;99.90;;;;;;5003229;28;20214;-76
2021/05/16 09:20:05;;;;;;;1.08;0.60;;;16.60;99.90;;;;;;5011450;28;20198;-77
2021/05/16 09:22:39;;;;;;;0.40;0.38;;;16.70;99.90;;;;;;5012711;28;20207;-77
2021/05/16 09:25:09;;;;;;;0.70;0.50;;;16.70;99.90;;;;;;5009577;28;20203;-76
2021/05/16 09:27:36;;;;;;;0.60;0.60;;;16.50;99.90;;;;;;5008403;28;20560;-77
2021/05/16 09:30:26;;;;;;;4.00;0.80;;;16.60;99.90;;;;;;5009495;28;20184;-78
2021/05/16 09:33:06;;;;;;;0.93;0.47;;;16.90;99.90;;;;;;5011211;28;20188;-77
2021/05/16 09:35:42;;;;;;;2.97;0.90;;;17.00;99.90;;;;;;5007766;28;20179;-76
2021/05/16 09:38:20;;;;;;;4.68;1.40;;;17.00;99.90;;;;;;5005029;28;20199;-76
2021/05/16 09:40:49;;;;;;;1.95;0.63;;;17.20;99.90;;;;;;5009618;28;20174;-77
2021/05/16 09:43:26;;;;;;;0.52;0.40;;;17.20;99.90;;;;;;5010567;28;20234;-77
2021/05/16 09:45:56;;;;;;;5.35;0.73;;;17.30;99.90;;;;;;5010006;28;20179;-76
2021/05/16 09:48:28;;;;;;;1.05;0.75;;;17.30;99.90;;;;;;5010305;28;20207;-77
2021/05/16 09:51:17;;;;;;;1.67;0.55;;;17.40;99.90;;;;;;5010776;28;20641;-78
2021/05/16 09:53:46;;;;;;;2.90;0.77;;;17.20;99.90;;;;;;5009934;28;20274;-77
2021/05/16 09:56:17;;;;;;;2.60;0.95;;;17.00;99.90;;;;;;5008685;28;20722;-77
2021/05/16 09:58:44;;;;;;;0.38;0.38;;;17.20;99.90;;;;;;5008966;28;20180;-77
2021/05/16 10:01:10;;;;;;;2.60;0.82;;;17.40;99.90;;;;;;5010117;28;20654;-77
2021/05/16 10:03:37;;;;;;;2.38;0.65;;;17.50;99.90;;;;;;5006858;28;20896;-77
2021/05/16 10:06:03;;;;;;;2.70;0.52;;;17.60;99.90;;;;;;5010323;28;20176;-78
2021/05/16 10:08:30;;;;;;;1.15;0.75;;;17.30;99.90;;;;;;5008574;28;20740;-77
2021/05/16 10:10:57;;;;;;;0.65;0.55;;;17.40;99.90;;;;;;5009054;28;20191;-77
2021/05/16 10:13:24;;;;;;;1.05;0.40;;;17.50;99.90;;;;;;5007050;28;20195;-76
2021/05/16 10:15:52;;;;;;;0.40;0.40;;;17.60;99.90;;;;;;5009324;28;20191;-78
2021/05/16 10:18:19;;;;;;;1.85;0.40;;;17.70;99.90;;;;;;5009394;28;20211;-76
2021/05/16 10:20:45;;;;;;;0.63;0.50;;;17.50;99.90;;;;;;5008480;28;20183;-77
2021/05/16 10:23:11;;;;;;;0.63;0.60;;;17.20;99.90;;;;;;5004438;28;20715;-77
2021/05/16 10:25:42;;;;;;;2.22;0.80;;;17.10;99.90;;;;;;5007332;28;20179;-76
2021/05/16 10:28:37;;;;;;;1.08;0.70;;;17.10;99.90;;;;;;5011078;28;20754;-76
2021/05/16 10:31:06;;;;;;;0.77;0.30;;;17.10;99.90;;;;;;5008295;28;20196;-78
2021/05/16 10:33:36;;;;;;;1.42;0.52;;;17.20;99.90;;;;;;5008845;28;20203;-76
2021/05/16 10:36:02;;;;;;;2.67;0.47;;;17.60;99.90;;;;;;5011071;28;20191;-78
2021/05/16 10:38:39;;;;;;;0.98;0.40;;;17.90;99.90;;;;;;5010172;28;20191;-77
2021/05/16 10:41:21;;;;;;;0.90;0.45;;;18.00;99.90;;;;;;5007621;28;20751;-77
2021/05/16 10:43:47;;;;;;;2.92;0.77;;;18.20;99.90;;;;;;5008288;28;20290;-77
2021/05/16 10:46:36;;;;;;;2.53;0.30;;;17.30;99.90;;;;;;5003955;28;20646;-77
2021/05/16 10:49:20;;;;;;;0.70;0.50;;;16.50;99.90;;;;;;5009290;28;20195;-77
2021/05/16 10:51:45;;;;;;;1.70;0.93;;;16.30;99.90;;;;;;5002629;28;20187;-77
2021/05/16 10:54:31;;;;;;;0.75;0.38;;;16.20;99.90;;;;;;5002933;28;20179;-77
2021/05/16 10:57:14;;;;;;;2.67;0.80;;;16.40;99.90;;;;;;5003260;28;20229;-77
2021/05/16 10:59:40;;;;;;;0.45;0.40;;;16.70;99.90;;;;;;5002930;28;20179;-77
2021/05/16 11:02:06;;;;;;;0.50;0.47;;;17.00;99.90;;;;;;5006169;28;20290;-77
2021/05/16 11:04:53;;;;;;;1.10;0.63;;;17.20;99.90;;;;;;5005505;28;20283;-77
2021/05/16 11:07:35;;;;;;;1.00;0.70;;;17.20;99.90;;;;;;5005301;28;20220;-77
2021/05/16 11:10:26;;;;;;;1.58;0.50;;;17.00;99.90;;;;;;5004875;28;20176;-77
2021/05/16 11:12:52;;;;;;;1.25;0.30;;;17.20;99.90;;;;;;5006418;28;20210;-77
2021/05/16 11:15:25;;;;;;;0.60;0.38;;;17.50;99.90;;;;;;5006910;28;20195;-76
2021/05/16 11:17:51;;;;;;;1.08;0.63;;;17.50;99.90;;;;;;5008138;28;20500;-78
2021/05/16 11:20:20;;;;;;;1.45;0.57;;;17.50;99.90;;;;;;5008976;28;20192;-78
2021/05/16 11:22:46;;;;;;;1.05;0.30;;;17.60;99.90;;;;;;5011329;28;20199;-77
2021/05/16 11:25:22;;;;;;;1.17;0.40;;;17.70;99.90;;;;;;5007826;28;20184;-77
2021/05/16 11:27:48;;;;;;;0.30;0.30;;;17.80;99.90;;;;;;5008634;28;20207;-76
2021/05/16 11:30:14;;;;;;;1.98;0.77;;;18.00;99.90;;;;;;5007102;28;20179;-77
2021/05/16 11:32:41;;;;;;;0.80;0.30;;;18.10;99.90;;;;;;5008660;28;20214;-77
2021/05/16 11:35:16;;;;;;;1.55;0.40;;;18.30;99.90;;;;;;5008051;28;20183;-77
2021/05/16 11:37:45;;;;;;;1.17;0.40;;;18.30;99.90;;;;;;5008892;28;20202;-77
2021/05/16 11:40:33;;;;;;;0.55;0.40;;;18.20;99.90;;;;;;5007567;28;20544;-77
2021/05/16 11:43:06;;;;;;;0.38;0.38;;;17.90;99.90;;;;;;5006892;28;20698;-76
2021/05/16 11:45:40;;;;;;;1.30;0.30;;;17.80;99.90;;;;;;5009117;28;20187;-77
2021/05/16 11:48:35;;;;;;;1.00;0.60;;;18.00;99.90;;;;;;5006583;28;20203;-76
2021/05/16 11:51:15;;;;;;;0.50;0.35;;;18.10;99.90;;;;;;4999577;28;20219;-77
2021/05/16 11:53:49;;;;;;;0.82;0.43;;;18.50;99.90;;;;;;5009904;28;20218;-77
2021/05/16 11:56:24;;;;;;;2.10;0.55;;;18.50;99.90;;;;;;5009407;28;20218;-77
2021/05/16 11:58:58;;;;;;;0.40;0.30;;;19.00;99.90;;;;;;5010504;28;20261;-78
2021/05/16 12:01:28;;;;;;;0.73;0.30;;;19.20;99.90;;;;;;5007804;28;20201;-78
2021/05/16 12:04:17;;;;;;;1.08;0.50;;;19.30;99.90;;;;;;5010068;28;20203;-77
2021/05/16 12:06:45;;;;;;;1.13;0.77;;;19.30;99.90;;;;;;5009422;28;20219;-77
2021/05/16 12:09:19;;;;;;;1.40;0.38;;;19.20;99.90;;;;;;5009153;28;20191;-77
2021/05/16 12:11:51;;;;;;;1.65;0.38;;;19.20;99.90;;;;;;5009591;28;20190;-77
2021/05/16 12:14:17;;;;;;;1.02;0.20;;;19.40;99.90;;;;;;5010009;28;20175;-77
2021/05/16 12:17:00;;;;;;;0.50;0.50;;;19.00;99.90;;;;;;5006426;28;20230;-77
2021/05/16 12:19:27;;;;;;;0.98;0.32;;;19.10;99.90;;;;;;5009485;28;20559;-77
2021/05/16 12:21:54;;;;;;;0.85;0.30;;;18.80;99.90;;;;;;5008458;28;20180;-77
2021/05/16 12:24:23;;;;;;;2.08;0.55;;;18.90;99.90;;;;;;5009830;28;20218;-77
2021/05/16 12:26:50;;;;;;;0.55;0.30;;;18.80;99.90;;;;;;5009646;28;20226;-78
2021/05/16 12:29:17;;;;;;;0.45;0.45;;;19.00;99.90;;;;;;5008481;28;20384;-77
2021/05/16 12:31:44;;;;;;;1.33;0.40;;;19.20;99.90;;;;;;5006383;28;20183;-78
2021/05/16 12:34:11;;;;;;;1.30;0.45;;;19.10;99.90;;;;;;5008999;28;20238;-77
2021/05/16 12:37:02;;;;;;;2.22;0.40;;;19.20;99.90;;;;;;5010012;28;20204;-78
2021/05/16 12:39:43;;;;;;;1.83;0.65;;;19.30;99.90;;;;;;5010799;28;20195;-77
2021/05/16 12:42:35;;;;;;;0.98;0.30;;;19.30;99.90;;;;;;5010467;28;20600;-77
2021/05/16 12:45:16;;;;;;;1.05;0.60;;;19.30;99.90;;;;;;5011133;28;20697;-76
2021/05/16 12:47:52;;;;;;;0.80;0.50;;;19.20;99.90;;;;;;5012600;28;20206;-77
2021/05/16 12:50:18;;;;;;;0.77;0.35;;;19.20;99.90;;;;;;5011413;28;20758;-77
2021/05/16 12:52:43;;;;;;;0.60;0.32;;;19.20;99.90;;;;;;5012797;28;20191;-77